createdAt,value
2022-11-18T00:00:22.338Z,20.46
2022-11-18T00:02:48.884Z,20.47
2022-11-18T00:05:16.620Z,20.40
2022-11-18T00:07:42.906Z,20.24
2022-11-18T00:10:09.361Z,20.16
2022-11-18T00:12:35.702Z,20.12
2022-11-18T00:15:02.070Z,20.08
2022-11-18T00:17:28.410Z,20.14
2022-11-18T00:19:54.735Z,20.22
2022-11-18T00:22:26.908Z,20.25
2022-11-18T00:24:56.012Z,20.26
2022-11-18T00:27:22.458Z,20.29
2022-11-18T00:29:49.071Z,20.33
2022-11-18T00:32:15.408Z,20.35
2022-11-18T00:34:41.763Z,20.35
2022-11-18T00:37:08.129Z,20.38
2022-11-18T00:39:35.723Z,20.40
2022-11-18T00:42:02.008Z,20.40
2022-11-18T00:44:28.411Z,20.40
2022-11-18T00:46:54.745Z,20.40
2022-11-18T00:49:21.074Z,20.40
2022-11-18T00:51:47.427Z,20.42
2022-11-18T00:54:13.752Z,20.41
2022-11-18T00:56:41.373Z,20.30
2022-11-18T00:59:07.969Z,20.17
2022-11-18T01:01:34.495Z,20.10
2022-11-18T01:04:00.883Z,20.07
2022-11-18T01:06:27.173Z,20.14
2022-11-18T01:08:53.544Z,20.21
2022-11-18T01:11:19.909Z,20.23
2022-11-18T01:13:50.297Z,20.27
2022-11-18T01:16:18.019Z,20.27
2022-11-18T01:18:44.449Z,20.29
2022-11-18T01:21:10.816Z,20.32
2022-11-18T01:23:37.143Z,20.32
2022-11-18T01:26:04.219Z,20.35
2022-11-18T01:28:30.737Z,20.33
2022-11-18T01:31:03.321Z,20.34
2022-11-18T01:33:29.624Z,20.35
2022-11-18T01:35:55.952Z,20.37
2022-11-18T01:38:22.364Z,20.38
2022-11-18T01:40:48.736Z,20.39
2022-11-18T01:43:16.007Z,20.40
2022-11-18T01:45:43.157Z,20.42
2022-11-18T01:48:13.567Z,20.32
2022-11-18T01:50:44.506Z,20.16
2022-11-18T01:53:13.408Z,20.08
2022-11-18T01:55:43.555Z,20.02
2022-11-18T01:58:12.320Z,20.08
2022-11-18T02:00:39.295Z,20.15
2022-11-18T02:03:05.989Z,20.20
2022-11-18T02:05:33.782Z,20.24
2022-11-18T02:08:00.920Z,20.24
2022-11-18T02:10:27.270Z,20.26
2022-11-18T02:12:54.511Z,20.28
2022-11-18T02:15:25.519Z,20.30
2022-11-18T02:17:57.195Z,20.30
2022-11-18T02:20:28.132Z,20.31
2022-11-18T02:23:11.862Z,20.32
2022-11-18T02:25:44.038Z,20.34
2022-11-18T02:28:22.827Z,20.34
2022-11-18T02:30:53.902Z,20.36
2022-11-18T02:33:24.043Z,20.36
2022-11-18T02:35:53.807Z,20.37
2022-11-18T02:38:24.594Z,20.30
2022-11-18T02:40:55.110Z,20.13
2022-11-18T02:43:24.509Z,20.06
2022-11-18T02:45:55.984Z,20.03
2022-11-18T02:48:24.666Z,20.10
2022-11-18T02:50:52.041Z,20.16
2022-11-18T02:53:19.660Z,20.19
2022-11-18T02:55:46.920Z,20.22
2022-11-18T02:58:15.265Z,20.22
2022-11-18T03:00:41.596Z,20.24
2022-11-18T03:03:17.769Z,20.26
2022-11-18T03:05:52.914Z,20.29
2022-11-18T03:08:23.017Z,20.29
2022-11-18T03:10:52.726Z,20.31
2022-11-18T03:13:24.792Z,20.32
2022-11-18T03:15:56.140Z,20.34
2022-11-18T03:18:26.455Z,20.32
2022-11-18T03:20:58.542Z,20.34
2022-11-18T03:23:28.320Z,20.35
2022-11-18T03:25:57.478Z,20.32
2022-11-18T03:28:26.307Z,20.13
2022-11-18T03:30:56.453Z,20.06
2022-11-18T03:33:24.909Z,20.03
2022-11-18T03:35:54.152Z,20.14
2022-11-18T03:38:25.100Z,20.26
2022-11-18T03:40:59.885Z,20.37
2022-11-18T03:43:29.034Z,20.43
2022-11-18T03:45:57.778Z,20.50
2022-11-18T03:48:26.345Z,20.55
2022-11-18T03:50:55.359Z,20.59
2022-11-18T03:53:25.418Z,20.62
2022-11-18T03:55:54.137Z,20.66
2022-11-18T03:58:23.364Z,20.69
2022-11-18T04:00:52.533Z,20.69
2022-11-18T04:03:19.106Z,20.76
2022-11-18T04:05:47.069Z,20.80
2022-11-18T04:08:16.273Z,20.82
2022-11-18T04:10:47.033Z,20.86
2022-11-18T04:13:17.931Z,20.87
2022-11-18T04:15:44.277Z,20.91
2022-11-18T04:18:11.011Z,20.93
2022-11-18T04:20:37.711Z,20.95
2022-11-18T04:23:04.228Z,20.94
2022-11-18T04:25:30.612Z,20.78
2022-11-18T04:27:58.278Z,20.64
2022-11-18T04:30:24.632Z,20.60
2022-11-18T04:32:50.932Z,20.58
2022-11-18T04:35:17.283Z,20.57
2022-11-18T04:37:43.585Z,20.52
2022-11-18T04:40:10.818Z,20.49
2022-11-18T04:42:37.165Z,20.62
2022-11-18T04:45:05.253Z,20.72
2022-11-18T04:47:31.611Z,20.78
2022-11-18T04:49:57.935Z,20.85
2022-11-18T04:52:24.293Z,20.87
2022-11-18T04:54:50.631Z,20.89
2022-11-18T04:57:17.081Z,20.94
2022-11-18T04:59:43.414Z,20.95
2022-11-18T05:02:11.038Z,20.97
2022-11-18T05:04:37.393Z,21.01
2022-11-18T05:07:04.699Z,21.02
2022-11-18T05:09:32.274Z,21.05
2022-11-18T05:11:59.327Z,21.09
2022-11-18T05:14:25.709Z,21.13
2022-11-18T05:16:52.160Z,21.12
2022-11-18T05:19:20.294Z,21.15
2022-11-18T05:21:46.826Z,21.11
2022-11-18T05:24:13.624Z,20.95
2022-11-18T05:26:39.963Z,20.81
2022-11-18T05:29:06.263Z,20.77
2022-11-18T05:31:32.931Z,20.74
2022-11-18T05:33:59.302Z,20.73
2022-11-18T05:36:26.973Z,20.69
2022-11-18T05:38:53.351Z,20.66
2022-11-18T05:41:19.746Z,20.65
2022-11-18T05:43:46.369Z,20.80
2022-11-18T05:46:12.705Z,20.90
2022-11-18T05:48:39.032Z,20.96
2022-11-18T05:51:05.490Z,20.99
2022-11-18T05:53:33.076Z,21.03
2022-11-18T05:56:03.387Z,21.05
2022-11-18T05:58:29.734Z,21.07
2022-11-18T06:01:00.629Z,21.10
2022-11-18T06:03:30.968Z,21.10
2022-11-18T06:05:59.773Z,21.15
2022-11-18T06:08:28.883Z,21.07
2022-11-18T06:10:56.795Z,20.60
2022-11-18T06:13:25.426Z,20.60
2022-11-18T06:15:52.616Z,20.60
2022-11-18T06:18:22.019Z,20.61
2022-11-18T06:20:48.447Z,20.48
2022-11-18T06:23:14.941Z,20.25
2022-11-18T06:25:41.594Z,20.16
2022-11-18T06:28:10.404Z,20.45
2022-11-18T06:30:36.764Z,20.64
2022-11-18T06:33:03.129Z,20.76
2022-11-18T06:35:29.511Z,20.81
2022-11-18T06:37:55.872Z,20.87
2022-11-18T06:40:22.157Z,20.94
2022-11-18T06:42:48.571Z,20.95
2022-11-18T06:45:17.136Z,20.98
2022-11-18T06:47:43.899Z,21.03
2022-11-18T06:50:10.358Z,21.07
2022-11-18T06:52:36.748Z,21.07
2022-11-18T06:55:03.256Z,21.10
2022-11-18T06:57:29.708Z,21.12
2022-11-18T07:00:01.622Z,21.06
2022-11-18T07:02:29.814Z,20.90
2022-11-18T07:04:56.134Z,20.79
2022-11-18T07:07:22.592Z,20.78
2022-11-18T07:09:48.960Z,20.73
2022-11-18T07:12:15.274Z,20.70
2022-11-18T07:14:41.613Z,20.67
2022-11-18T07:17:08.079Z,20.71
2022-11-18T07:19:36.234Z,20.85
2022-11-18T07:22:02.606Z,20.93
2022-11-18T07:24:28.971Z,21.00
2022-11-18T07:26:55.375Z,21.08
2022-11-18T07:29:21.706Z,21.15
2022-11-18T07:31:48.012Z,21.18
2022-11-18T07:34:14.447Z,21.17
2022-11-18T07:36:42.208Z,21.20
2022-11-18T07:39:08.788Z,21.20
2022-11-18T07:41:35.605Z,21.15
2022-11-18T07:44:03.144Z,21.11
2022-11-18T07:46:30.281Z,21.15
2022-11-18T07:48:57.493Z,21.17
2022-11-18T07:51:24.862Z,21.18
2022-11-18T07:53:52.487Z,21.19
2022-11-18T07:56:19.295Z,21.08
2022-11-18T07:58:45.762Z,20.86
2022-11-18T08:01:12.842Z,20.86
2022-11-18T08:03:39.474Z,20.80
2022-11-18T08:06:06.895Z,20.78
2022-11-18T08:08:33.249Z,20.74
2022-11-18T08:11:01.808Z,20.70
2022-11-18T08:13:28.469Z,20.77
2022-11-18T08:15:55.383Z,20.90
2022-11-18T08:18:22.150Z,20.95
2022-11-18T08:20:48.579Z,21.00
2022-11-18T08:23:16.054Z,21.00
2022-11-18T08:25:43.204Z,21.01
2022-11-18T08:28:11.126Z,21.03
2022-11-18T08:30:37.825Z,21.06
2022-11-18T08:33:04.557Z,21.15
2022-11-18T08:35:31.828Z,21.22
2022-11-18T08:37:58.531Z,21.25
2022-11-18T08:40:25.327Z,21.30
2022-11-18T08:42:51.709Z,21.31
2022-11-18T08:45:19.442Z,21.37
2022-11-18T08:47:45.819Z,21.37
2022-11-18T08:50:12.418Z,21.41
2022-11-18T08:52:38.835Z,21.43
2022-11-18T08:55:06.091Z,21.44
2022-11-18T08:57:32.395Z,21.50
2022-11-18T08:59:58.745Z,21.50
2022-11-18T09:02:26.336Z,21.38
2022-11-18T09:04:53.267Z,21.20
2022-11-18T09:07:20.472Z,21.14
2022-11-18T09:09:47.263Z,21.10
2022-11-18T09:12:13.674Z,21.07
2022-11-18T09:17:29.027Z,20.96
2022-11-18T09:19:55.409Z,20.96
2022-11-18T09:22:21.750Z,20.95
2022-11-18T09:24:48.161Z,21.01
2022-11-18T09:27:17.253Z,21.02
2022-11-18T09:29:44.113Z,20.97
2022-11-18T09:32:10.517Z,20.98
2022-11-18T09:34:38.187Z,20.94
2022-11-18T09:37:04.614Z,20.90
2022-11-18T09:39:30.957Z,20.88
2022-11-18T09:42:04.487Z,20.88
2022-11-18T09:44:40.438Z,20.87
2022-11-18T09:47:12.895Z,20.83
2022-11-18T09:49:42.108Z,20.85
2022-11-18T09:52:13.606Z,20.83
2022-11-18T09:54:40.015Z,20.85
2022-11-18T09:57:11.781Z,20.85
2022-11-18T09:59:38.457Z,20.84
2022-11-18T10:02:19.852Z,20.84
2022-11-18T10:04:47.554Z,20.80
2022-11-18T10:07:17.927Z,20.80
2022-11-18T10:09:45.277Z,20.67
2022-11-18T10:12:14.900Z,20.58
2022-11-18T10:14:48.472Z,20.62
2022-11-18T10:17:21.548Z,20.74
2022-11-18T10:19:52.526Z,20.77
2022-11-18T10:22:24.611Z,20.83
2022-11-18T10:24:52.609Z,20.75
2022-11-18T10:27:19.185Z,20.72
2022-11-18T10:29:48.493Z,20.76
2022-11-18T10:32:15.531Z,20.77
2022-11-18T10:34:47.334Z,20.76
2022-11-18T10:37:34.480Z,20.74
2022-11-18T10:40:23.029Z,20.70
2022-11-18T10:42:49.429Z,20.71
2022-11-18T10:45:16.703Z,20.75
2022-11-18T10:47:43.111Z,20.75
2022-11-18T10:50:24.283Z,20.72
2022-11-18T10:52:52.909Z,20.78
2022-11-18T10:55:21.055Z,20.76
2022-11-18T10:57:48.575Z,20.74
2022-11-18T11:00:24.892Z,20.71
2022-11-18T11:02:51.276Z,20.79
2022-11-18T11:05:19.747Z,21.01
2022-11-18T11:07:46.294Z,21.13
2022-11-18T11:10:21.556Z,21.18
2022-11-18T11:12:51.597Z,21.24
2022-11-18T11:15:19.206Z,21.26
2022-11-18T11:17:48.340Z,21.31
2022-11-18T11:20:17.938Z,21.36
2022-11-18T11:22:44.442Z,21.39
2022-11-18T11:25:12.821Z,21.41
2022-11-18T11:30:35.828Z,21.40
2022-11-18T11:33:12.401Z,21.35
2022-11-18T11:35:42.539Z,21.39
2022-11-18T11:38:15.961Z,21.44
2022-11-18T11:40:45.075Z,21.36
2022-11-18T11:43:22.059Z,21.22
2022-11-18T11:45:56.837Z,21.08
2022-11-18T11:48:30.183Z,21.03
2022-11-18T11:51:04.283Z,21.03
2022-11-18T11:53:44.829Z,21.01
2022-11-18T11:56:19.721Z,21.01
2022-11-18T11:58:59.139Z,20.98
2022-11-18T12:01:29.814Z,20.95
2022-11-18T12:04:01.618Z,20.94
2022-11-18T12:06:28.089Z,20.92
2022-11-18T12:09:01.666Z,21.01
2022-11-18T12:11:30.818Z,20.95
2022-11-18T12:14:02.666Z,21.04
2022-11-18T12:16:33.589Z,21.19
2022-11-18T12:19:01.395Z,21.26
2022-11-18T12:21:37.623Z,21.32
2022-11-18T12:24:18.786Z,21.38
2022-11-18T12:26:46.364Z,21.44
2022-11-18T12:29:23.129Z,21.49
2022-11-18T12:31:50.614Z,21.52
2022-11-18T12:34:20.456Z,21.57
2022-11-18T12:36:46.773Z,21.58
2022-11-18T12:39:23.052Z,21.64
2022-11-18T12:41:53.218Z,21.63
2022-11-18T12:44:24.002Z,21.64
2022-11-18T12:46:51.639Z,21.70
2022-11-18T12:49:27.827Z,21.75
2022-11-18T12:51:54.898Z,21.76
2022-11-18T12:54:24.229Z,21.72
2022-11-18T12:56:50.609Z,21.52
2022-11-18T12:59:17.291Z,21.34
2022-11-18T13:01:45.591Z,21.32
2022-11-18T13:04:13.851Z,21.31
2022-11-18T13:06:40.530Z,21.30
2022-11-18T13:09:14.564Z,21.28
2022-11-18T13:11:43.801Z,21.25
2022-11-18T13:14:14.370Z,21.22
2022-11-18T13:16:41.507Z,21.23
2022-11-18T13:19:09.466Z,21.21
2022-11-18T13:21:36.096Z,21.18
2022-11-18T13:24:02.517Z,21.13
2022-11-18T13:26:29.976Z,21.14
2022-11-18T13:29:02.849Z,21.03
2022-11-18T13:31:32.653Z,20.97
2022-11-18T13:34:00.746Z,21.00
2022-11-18T13:39:43.840Z,21.23
2022-11-18T13:42:17.165Z,21.18
2022-11-18T13:44:45.447Z,21.21
2022-11-18T13:47:15.850Z,21.20
2022-11-18T13:49:50.392Z,21.18
2022-11-18T13:52:18.987Z,21.46
2022-11-18T13:54:45.901Z,21.32
2022-11-18T13:57:22.669Z,21.22
2022-11-18T13:59:49.942Z,21.19
2022-11-18T14:02:16.745Z,21.18
2022-11-18T14:04:49.539Z,21.21
2022-11-18T14:07:22.662Z,21.18
2022-11-18T14:09:53.570Z,21.15
2022-11-18T14:12:25.345Z,21.16
2022-11-18T14:14:51.691Z,21.14
2022-11-18T14:17:19.215Z,21.06
2022-11-18T14:19:46.383Z,21.03
2022-11-18T14:22:15.140Z,21.04
2022-11-18T14:24:41.645Z,21.06
2022-11-18T14:27:17.862Z,20.96
2022-11-18T14:29:50.421Z,20.87
2022-11-18T14:32:16.758Z,20.80
2022-11-18T14:34:43.086Z,20.91
2022-11-18T14:37:10.916Z,20.99
2022-11-18T14:39:37.911Z,21.03
2022-11-18T14:42:04.715Z,21.09
2022-11-18T14:44:31.151Z,21.08
2022-11-18T14:46:59.724Z,21.04
2022-11-18T14:49:26.960Z,21.04
2022-11-18T14:51:53.921Z,21.02
2022-11-18T14:54:26.360Z,20.97
2022-11-18T14:56:54.587Z,20.98
2022-11-18T14:59:21.142Z,20.95
2022-11-18T15:01:47.692Z,20.97
2022-11-18T15:04:15.743Z,20.98
2022-11-18T15:06:42.176Z,20.93
2022-11-18T15:09:08.578Z,20.92
2022-11-18T15:11:34.986Z,20.82
2022-11-18T15:14:01.622Z,20.76
2022-11-18T15:16:29.288Z,20.79
2022-11-18T15:19:00.057Z,20.74
2022-11-18T15:21:28.529Z,20.71
2022-11-18T15:23:54.958Z,20.70
2022-11-18T15:26:22.317Z,20.68
2022-11-18T15:28:49.333Z,20.64
2022-11-18T15:31:16.239Z,20.67
2022-11-18T15:33:42.581Z,20.63
2022-11-18T15:36:11.808Z,20.71
2022-11-18T15:38:39.439Z,20.66
2022-11-18T15:41:05.935Z,20.61
2022-11-18T15:43:32.301Z,20.52
2022-11-18T15:45:59.018Z,20.48
2022-11-18T15:48:25.397Z,20.48
2022-11-18T15:50:54.234Z,20.43
2022-11-18T15:53:20.790Z,20.42
2022-11-18T15:55:48.456Z,20.38
2022-11-18T15:58:17.345Z,20.38
2022-11-18T16:00:45.193Z,20.32
2022-11-18T16:03:11.727Z,20.27
2022-11-18T16:05:38.038Z,20.26
2022-11-18T16:08:04.449Z,20.23
2022-11-18T16:10:30.735Z,20.30
2022-11-18T16:12:58.369Z,20.42
2022-11-18T16:15:24.702Z,20.48
2022-11-18T16:17:51.299Z,20.47
2022-11-18T16:20:17.692Z,20.49
2022-11-18T16:22:44.032Z,20.48
2022-11-18T16:25:11.143Z,20.47
2022-11-18T16:27:37.436Z,20.46
2022-11-18T16:30:05.304Z,20.46
2022-11-18T16:32:31.603Z,20.45
2022-11-18T16:35:01.239Z,20.43
2022-11-18T16:37:27.903Z,20.42
2022-11-18T16:39:54.210Z,20.41
2022-11-18T16:42:20.493Z,20.40
2022-11-18T16:44:46.903Z,20.39
2022-11-18T16:47:15.453Z,20.39
2022-11-18T16:49:42.296Z,20.36
2022-11-18T16:52:08.609Z,20.35
2022-11-18T16:54:38.272Z,20.36
2022-11-18T16:57:08.464Z,20.35
2022-11-18T16:59:34.740Z,20.35
2022-11-18T17:02:01.202Z,20.35
2022-11-18T17:04:29.622Z,20.34
2022-11-18T17:06:56.038Z,20.33
2022-11-18T17:09:23.389Z,20.40
2022-11-18T17:11:49.948Z,20.38
2022-11-18T17:14:16.321Z,20.32
2022-11-18T17:16:43.035Z,20.30
2022-11-18T17:19:12.799Z,20.30
2022-11-18T17:21:41.067Z,20.28
2022-11-18T17:24:07.810Z,20.25
2022-11-18T17:26:34.182Z,20.23
2022-11-18T17:29:00.562Z,20.22
2022-11-18T17:31:26.876Z,20.22
2022-11-18T17:33:54.215Z,20.20
2022-11-18T17:36:22.137Z,20.21
2022-11-18T17:38:51.048Z,20.20
2022-11-18T17:41:18.474Z,20.19
2022-11-18T17:43:44.744Z,20.19
2022-11-18T17:46:11.045Z,20.18
2022-11-18T17:48:37.397Z,20.16
2022-11-18T17:51:04.251Z,20.16
2022-11-18T17:53:30.903Z,20.15
2022-11-18T17:56:03.709Z,20.14
2022-11-18T17:58:30.521Z,20.13
2022-11-18T18:00:56.915Z,20.12
2022-11-18T18:03:23.292Z,20.11
2022-11-18T18:05:49.647Z,20.10
2022-11-18T18:08:16.126Z,20.10
2022-11-18T18:10:42.482Z,20.09
2022-11-18T18:13:10.081Z,20.09
2022-11-18T18:15:37.019Z,20.08
2022-11-18T18:18:03.470Z,20.08
2022-11-18T18:20:29.808Z,20.07
2022-11-18T18:22:56.170Z,20.06
2022-11-18T18:25:22.829Z,20.06
2022-11-18T18:27:49.176Z,20.05
2022-11-18T18:30:17.369Z,20.02
2022-11-18T18:32:48.123Z,20.02
2022-11-18T18:35:17.417Z,20.00
2022-11-18T18:37:43.734Z,19.98
2022-11-18T18:40:10.409Z,19.97
2022-11-18T18:42:36.740Z,19.98
2022-11-18T18:45:03.287Z,19.97
2022-11-18T18:47:33.460Z,19.95
2022-11-18T18:49:59.806Z,19.95
2022-11-18T18:52:26.165Z,19.94
2022-11-18T18:54:52.495Z,19.92
2022-11-18T18:57:19.034Z,19.92
2022-11-18T18:59:45.343Z,19.92
2022-11-18T19:02:11.943Z,19.90
2022-11-18T19:04:39.552Z,19.90
2022-11-18T19:07:05.993Z,19.89
2022-11-18T19:09:35.211Z,19.87
2022-11-18T19:12:04.231Z,19.87
2022-11-18T19:14:32.321Z,19.87
2022-11-18T19:16:58.617Z,19.87
2022-11-18T19:19:25.993Z,19.86
2022-11-18T19:21:53.592Z,19.87
2022-11-18T19:24:47.756Z,19.87
2022-11-18T19:27:06.606Z,19.83
2022-11-18T19:29:33.253Z,19.84
2022-11-18T19:31:59.553Z,19.82
2022-11-18T19:34:25.938Z,19.83
2022-11-18T19:36:53.536Z,19.81
2022-11-18T19:39:20.171Z,19.79
2022-11-18T19:41:46.649Z,19.79
2022-11-18T19:44:13.050Z,19.80
2022-11-18T19:46:39.379Z,19.80
2022-11-18T19:49:05.674Z,19.79
2022-11-18T19:51:31.976Z,19.78
2022-11-18T19:53:59.885Z,19.80
2022-11-18T19:56:26.247Z,19.78
2022-11-18T19:58:52.524Z,19.77
2022-11-18T20:01:20.277Z,19.76
2022-11-18T20:03:47.125Z,19.76
2022-11-18T20:06:14.319Z,19.76
2022-11-18T20:08:40.634Z,19.75
2022-11-18T20:11:09.592Z,19.82
2022-11-18T20:13:36.380Z,19.80
2022-11-18T20:16:03.818Z,19.82
2022-11-18T20:18:30.142Z,19.76
2022-11-18T20:20:56.473Z,19.74
2022-11-18T20:23:22.798Z,19.77
2022-11-18T20:25:49.098Z,19.74
2022-11-18T20:28:16.769Z,19.72
2022-11-18T20:30:45.156Z,19.72
2022-11-18T20:33:11.593Z,19.70
2022-11-18T20:35:37.965Z,19.70
2022-11-18T20:38:04.254Z,19.69
2022-11-18T20:40:30.567Z,19.67
2022-11-18T20:42:57.010Z,19.68
2022-11-18T20:45:24.616Z,19.68
2022-11-18T20:47:50.990Z,19.67
2022-11-18T20:50:17.430Z,19.67
2022-11-18T20:52:43.764Z,19.67
2022-11-18T20:55:10.147Z,19.67
2022-11-18T20:57:36.450Z,19.65
2022-11-18T21:00:02.905Z,19.64
2022-11-18T21:02:30.973Z,19.65
2022-11-18T21:04:57.411Z,19.64
2022-11-18T21:07:23.845Z,19.63
2022-11-18T21:09:50.185Z,19.64
2022-11-18T21:12:16.512Z,19.62
2022-11-18T21:14:42.980Z,19.62
2022-11-18T21:17:09.321Z,19.62
2022-11-18T21:19:36.975Z,19.63
2022-11-18T21:22:03.307Z,19.62
2022-11-18T21:24:30.520Z,19.61
2022-11-18T21:26:57.320Z,19.59
2022-11-18T21:29:25.410Z,19.60
2022-11-18T21:31:52.146Z,19.59
2022-11-18T21:34:18.884Z,19.58
2022-11-18T21:36:52.972Z,19.58
2022-11-18T21:39:21.373Z,19.57
2022-11-18T21:41:53.678Z,19.57
2022-11-18T21:44:21.846Z,19.56
2022-11-18T21:46:48.335Z,19.57
2022-11-18T21:49:14.681Z,19.55
2022-11-18T21:51:40.994Z,19.55
2022-11-18T21:54:08.632Z,19.57
2022-11-18T21:56:34.982Z,19.53
2022-11-18T21:59:01.936Z,19.52
2022-11-18T22:01:28.906Z,19.54
2022-11-18T22:03:56.069Z,19.53
2022-11-18T22:06:23.014Z,19.52
2022-11-18T22:08:50.074Z,19.50
2022-11-18T22:11:17.755Z,19.50
2022-11-18T22:13:44.102Z,19.50
2022-11-18T22:16:11.579Z,19.49
2022-11-18T22:18:38.931Z,19.47
2022-11-18T22:21:06.324Z,19.48
2022-11-18T22:23:33.080Z,19.47
2022-11-18T22:25:59.926Z,19.48
2022-11-18T22:28:27.539Z,19.48
2022-11-18T22:30:53.882Z,19.45
2022-11-18T22:33:20.240Z,19.46
2022-11-18T22:35:46.591Z,19.47
2022-11-18T22:38:12.882Z,19.44
2022-11-18T22:40:39.361Z,19.44
2022-11-18T22:43:05.768Z,19.44
2022-11-18T22:45:33.411Z,19.44
2022-11-18T22:47:59.691Z,19.43
2022-11-18T22:50:26.211Z,19.42
2022-11-18T22:52:52.555Z,19.41
2022-11-18T22:55:19.027Z,19.40
2022-11-18T22:57:45.364Z,19.39
2022-11-18T23:00:12.179Z,19.40
2022-11-18T23:02:39.775Z,19.39
2022-11-18T23:05:06.321Z,19.38
2022-11-18T23:07:32.750Z,19.37
2022-11-18T23:09:59.165Z,19.36
2022-11-18T23:12:25.642Z,19.37
2022-11-18T23:14:52.014Z,19.37
2022-11-18T23:17:18.355Z,19.36
2022-11-18T23:19:45.910Z,19.36
2022-11-18T23:22:12.721Z,19.36
2022-11-18T23:24:39.378Z,19.34
2022-11-18T23:27:05.827Z,19.33
2022-11-18T23:29:32.081Z,19.33
2022-11-18T23:31:58.376Z,19.33
2022-11-18T23:34:24.702Z,19.31
2022-11-18T23:36:52.319Z,19.33
2022-11-18T23:39:19.144Z,19.31
2022-11-18T23:41:45.778Z,19.31
2022-11-18T23:44:12.239Z,19.29
2022-11-18T23:46:38.563Z,19.29
2022-11-18T23:49:07.561Z,19.28
2022-11-18T23:51:33.939Z,19.29
2022-11-18T23:54:01.718Z,19.28
2022-11-18T23:56:28.017Z,19.25
2022-11-18T23:58:55.537Z,19.28
